Time;durP1;ratioP1;P1;durP2;ratioP2;P2;SDS_P1;SDS_P2;PMS_P1;PMS_P2;Temp;Humidity;BMP_temperature;BMP_pressure;BME280_temperature;BME280_humidity;BME280_pressure;Samples;Min_cycle;Max_cycle;Signal;HPM_P1;HPM_P2
2022/04/12 00:00:40;;;;;;;16.08;10.27;;;8.50;99.90;;;;;;5029904;28;20068;-83
2022/04/12 00:03:06;;;;;;;17.45;10.60;;;8.60;99.90;;;;;;5032258;28;20056;-83
2022/04/12 00:05:33;;;;;;;21.60;9.93;;;8.50;99.90;;;;;;5014707;28;20045;-82
2022/04/12 00:07:59;;;;;;;18.00;10.32;;;8.50;99.90;;;;;;5013799;28;20143;-84
2022/04/12 00:10:25;;;;;;;;;;;8.50;99.90;;;;;;5044503;28;20218;-83
2022/04/12 00:12:51;;;;;;;17.67;9.93;;;8.50;99.90;;;;;;5011214;28;19973;-83
2022/04/12 00:15:17;;;;;;;17.52;10.35;;;8.60;99.90;;;;;;5011185;28;20054;-84
2022/04/12 00:20:27;;;;;;;19.73;11.30;;;8.40;99.90;;;;;;5027701;28;20491;-83
2022/04/12 00:22:54;;;;;;;19.33;11.52;;;8.30;99.90;;;;;;5015201;28;20501;-83
2022/04/12 00:25:22;;;;;;;17.40;9.75;;;8.30;99.90;;;;;;5014533;28;20175;-83
2022/04/12 00:27:50;;;;;;;16.92;9.85;;;8.30;99.90;;;;;;5014759;28;20072;-83
2022/04/12 00:30:17;;;;;;;20.55;10.50;;;8.20;99.90;;;;;;5029534;28;20054;-83
2022/04/12 00:32:43;;;;;;;19.10;10.20;;;8.20;99.90;;;;;;5031510;28;20037;-82
2022/04/12 00:35:09;;;;;;;16.58;10.13;;;8.30;99.90;;;;;;5030910;28;20423;-84
2022/04/12 00:37:35;;;;;;;19.25;11.02;;;8.20;99.90;;;;;;5030338;28;20158;-83
2022/04/12 00:40:01;;;;;;;19.05;10.48;;;8.10;99.90;;;;;;5030866;28;20045;-83
2022/04/12 00:42:26;;;;;;;17.35;10.25;;;8.10;99.90;;;;;;5029680;28;20122;-83
2022/04/12 00:44:52;;;;;;;16.65;9.98;;;8.10;99.90;;;;;;5014710;28;20063;-83
2022/04/12 00:47:18;;;;;;;16.02;9.18;;;8.00;99.90;;;;;;5014378;28;20505;-83
2022/04/12 00:49:44;;;;;;;16.80;9.60;;;8.00;99.90;;;;;;4998359;28;20056;-83
2022/04/12 00:52:11;;;;;;;17.42;10.40;;;8.00;99.90;;;;;;5030571;28;20057;-83
2022/04/12 00:54:38;;;;;;;16.83;8.98;;;8.00;99.90;;;;;;5043375;28;20042;-83
2022/04/12 00:57:06;;;;;;;18.23;9.32;;;7.90;99.90;;;;;;5016369;28;20085;-83
2022/04/12 00:59:32;;;;;;;16.77;9.32;;;7.90;99.90;;;;;;5029998;28;20123;-82
2022/04/12 01:01:58;;;;;;;;;;;7.80;99.90;;;;;;5031466;28;20537;-83
2022/04/12 01:04:23;;;;;;;19.92;8.70;;;7.90;99.90;;;;;;5030452;28;19924;-82
2022/04/12 01:06:50;;;;;;;19.02;9.90;;;7.80;99.90;;;;;;5030382;28;20135;-84
2022/04/12 01:09:17;;;;;;;16.85;9.45;;;7.80;99.90;;;;;;5028945;28;20130;-83
2022/04/12 01:11:48;;;;;;;19.58;8.68;;;7.90;99.90;;;;;;5030950;28;20050;-84
2022/04/12 01:14:15;;;;;;;16.65;10.15;;;7.70;99.90;;;;;;5013942;28;20453;-84
2022/04/12 01:16:41;;;;;;;17.23;10.20;;;7.80;99.90;;;;;;5002916;28;20046;-83
2022/04/12 01:19:07;;;;;;;15.30;9.02;;;7.70;99.90;;;;;;4994792;28;20045;-83
2022/04/12 01:21:39;;;;;;;17.95;9.00;;;7.70;99.90;;;;;;4977408;28;20198;-83
2022/04/12 01:24:06;;;;;;;15.57;9.55;;;7.70;99.90;;;;;;5010736;28;20060;-83
2022/04/12 01:26:32;;;;;;;16.38;9.30;;;7.60;99.90;;;;;;4994004;28;20053;-83
2022/04/12 01:28:59;;;;;;;16.92;8.57;;;7.70;99.90;;;;;;4977049;28;20042;-83
2022/04/12 01:31:25;;;;;;;;;;;7.60;99.90;;;;;;5014557;28;20510;-83
2022/04/12 01:33:51;;;;;;;13.75;8.20;;;7.60;99.90;;;;;;5013778;28;20003;-83
2022/04/12 01:36:17;;;;;;;17.48;8.50;;;7.60;99.90;;;;;;5012763;28;20050;-84
2022/04/12 01:38:42;;;;;;;16.23;9.30;;;7.50;99.90;;;;;;5013689;28;20544;-83
2022/04/12 01:41:08;;;;;;;20.00;9.90;;;7.50;99.90;;;;;;5016818;28;20104;-83
2022/04/12 01:43:34;;;;;;;16.90;8.85;;;7.50;99.90;;;;;;5027972;28;20847;-83
2022/04/12 01:46:00;;;;;;;16.50;9.50;;;7.50;99.90;;;;;;5029467;28;20076;-83
2022/04/12 01:48:26;;;;;;;16.58;9.43;;;7.40;99.90;;;;;;5029642;28;20045;-83
2022/04/12 01:50:52;;;;;;;16.50;9.57;;;7.40;99.90;;;;;;5013241;28;20045;-83
2022/04/12 01:53:17;;;;;;;18.20;9.75;;;7.40;99.90;;;;;;5029617;28;20553;-84
2022/04/12 01:55:43;;;;;;;17.33;9.88;;;7.30;99.90;;;;;;5013371;28;20191;-83
2022/04/12 01:58:09;;;;;;;16.90;8.82;;;7.30;99.90;;;;;;5028811;28;20053;-83
2022/04/12 02:00:36;;;;;;;17.55;9.75;;;7.30;99.90;;;;;;4996701;28;20061;-83
2022/04/12 02:03:03;;;;;;;17.95;9.35;;;7.20;99.90;;;;;;4997486;28;20552;-83
2022/04/12 02:05:29;;;;;;;15.50;9.23;;;7.20;99.90;;;;;;5028816;28;20482;-83
2022/04/12 02:07:55;;;;;;;14.32;8.77;;;7.20;99.90;;;;;;5029005;28;20049;-83
2022/04/12 02:10:22;;;;;;;14.93;8.25;;;7.10;99.90;;;;;;5020644;28;20056;-83
2022/04/12 02:12:49;;;;;;;14.52;8.85;;;7.10;99.90;;;;;;5008834;28;20499;-83
2022/04/12 02:15:16;;;;;;;17.95;9.30;;;7.10;99.90;;;;;;5009575;28;20046;-82
2022/04/12 02:17:41;;;;;;;16.45;9.35;;;7.10;99.90;;;;;;5009525;28;20042;-83
2022/04/12 02:20:07;;;;;;;14.90;8.30;;;7.00;99.90;;;;;;5009734;28;20049;-83
2022/04/12 02:22:34;;;;;;;19.30;9.00;;;7.00;99.90;;;;;;5008722;28;20100;-83
2022/04/12 02:24:59;;;;;;;;;;;6.90;99.90;;;;;;5010088;28;20081;-84
2022/04/12 02:27:25;;;;;;;15.52;7.95;;;6.90;99.90;;;;;;4992134;28;19972;-83
2022/04/12 02:29:51;;;;;;;13.77;8.10;;;6.80;99.90;;;;;;4976882;28;20137;-83
2022/04/12 02:32:16;;;;;;;15.80;9.10;;;6.80;99.90;;;;;;5010381;28;20489;-83
2022/04/12 02:34:42;;;;;;;18.10;9.27;;;6.80;99.90;;;;;;5028502;28;20103;-83
2022/04/12 02:37:08;;;;;;;14.68;8.38;;;6.80;99.90;;;;;;4992469;28;20545;-83
2022/04/12 02:39:34;;;;;;;19.27;9.73;;;6.80;99.90;;;;;;5008932;28;20076;-83
2022/04/12 02:42:00;;;;;;;16.40;9.20;;;6.80;99.90;;;;;;5008545;28;20491;-83
2022/04/12 02:44:25;;;;;;;17.52;10.13;;;7.70;99.90;;;;;;5008659;28;20748;-83
2022/04/12 02:46:51;;;;;;;17.23;8.52;;;6.80;99.90;;;;;;5024843;28;20052;-83
2022/04/12 02:49:17;;;;;;;16.20;8.75;;;6.70;99.90;;;;;;5012966;28;20047;-82
2022/04/12 02:51:43;;;;;;;16.85;8.05;;;6.70;99.90;;;;;;5028202;28;20064;-82
2022/04/12 02:54:08;;;;;;;17.60;9.10;;;6.70;99.90;;;;;;5028940;28;20487;-83
2022/04/12 02:56:34;;;;;;;14.95;8.80;;;6.70;99.90;;;;;;5028287;28;20053;-83
2022/04/12 02:59:00;;;;;;;14.27;8.38;;;6.70;99.90;;;;;;5027904;28;20046;-83
2022/04/12 03:01:25;;;;;;;15.93;8.48;;;6.70;99.90;;;;;;5028233;28;20510;-83
2022/04/12 03:03:51;;;;;;;17.60;9.85;;;6.60;99.90;;;;;;5028904;28;20560;-83
2022/04/12 03:06:17;;;;;;;16.83;10.10;;;6.60;99.90;;;;;;5028591;28;20045;-82
2022/04/12 03:08:42;;;;;;;15.77;8.63;;;6.60;99.90;;;;;;5011876;28;20041;-83
2022/04/12 03:11:08;;;;;;;15.25;8.43;;;6.60;99.90;;;;;;5012310;28;20635;-83
2022/04/12 03:13:34;;;;;;;15.20;8.60;;;6.60;99.90;;;;;;5027231;28;20152;-83
2022/04/12 03:16:00;;;;;;;17.75;9.68;;;6.60;99.90;;;;;;5012449;28;20144;-83
2022/04/12 03:18:25;;;;;;;13.63;8.38;;;6.50;99.90;;;;;;5012133;28;20479;-83
2022/04/12 03:20:51;;;;;;;15.88;8.70;;;6.50;99.90;;;;;;5028298;28;20534;-82
2022/04/12 03:23:18;;;;;;;16.38;9.27;;;6.50;99.90;;;;;;5028740;28;20562;-83
2022/04/12 03:25:44;;;;;;;15.90;8.68;;;6.50;99.90;;;;;;5028153;28;20073;-83
2022/04/12 03:28:10;;;;;;;17.20;8.98;;;6.50;99.90;;;;;;5010312;28;20302;-82
2022/04/12 03:30:36;;;;;;;16.05;7.93;;;6.50;99.90;;;;;;5011905;28;20566;-83
2022/04/12 03:33:02;;;;;;;15.63;8.55;;;6.50;99.90;;;;;;5031315;28;20045;-83
2022/04/12 03:35:28;;;;;;;18.05;9.15;;;6.60;99.90;;;;;;5034091;28;20053;-83
2022/04/12 03:38:00;;;;;;;16.60;9.20;;;6.40;99.90;;;;;;5035832;28;20063;-83
2022/04/12 03:40:30;;;;;;;16.30;8.48;;;6.50;99.90;;;;;;5035478;28;20053;-83
2022/04/12 03:43:01;;;;;;;19.48;8.23;;;6.50;99.90;;;;;;5034612;28;20060;-83
2022/04/12 03:45:28;;;;;;;16.10;8.77;;;6.50;99.90;;;;;;5035031;28;20154;-84
2022/04/12 03:47:54;;;;;;;16.05;9.18;;;6.50;99.90;;;;;;5033798;28;20041;-83
2022/04/12 03:50:20;;;;;;;18.23;8.80;;;7.00;99.90;;;;;;5019003;28;20065;-83
2022/04/12 03:52:46;;;;;;;16.05;9.15;;;6.50;99.90;;;;;;5018197;28;20151;-83
2022/04/12 03:55:11;;;;;;;16.10;8.82;;;6.50;99.90;;;;;;5051926;28;20052;-83
2022/04/12 03:57:38;;;;;;;14.63;9.10;;;6.50;99.90;;;;;;5017925;28;20052;-83
2022/04/12 04:00:08;;;;;;;15.50;9.02;;;6.50;99.90;;;;;;5018523;28;20044;-83
2022/04/12 04:02:36;;;;;;;14.70;8.30;;;6.40;99.90;;;;;;5034673;28;20130;-83
2022/04/12 04:05:03;;;;;;;16.30;8.32;;;6.40;99.90;;;;;;5035408;28;20447;-83
2022/04/12 04:07:29;;;;;;;17.70;8.88;;;6.40;99.90;;;;;;5033828;28;20045;-83
2022/04/12 04:09:54;;;;;;;16.35;8.50;;;6.40;99.90;;;;;;5002497;28;20071;-83
2022/04/12 04:12:22;;;;;;;16.27;8.60;;;6.40;99.90;;;;;;5017991;28;20041;-83
2022/04/12 04:14:48;;;;;;;14.88;9.25;;;6.40;99.90;;;;;;5034295;28;20695;-83
2022/04/12 04:17:14;;;;;;;;;;;6.40;99.90;;;;;;5035366;28;20045;-82
2022/04/12 04:19:40;;;;;;;18.23;8.68;;;6.30;99.90;;;;;;5034609;28;19931;-83
2022/04/12 04:22:06;;;;;;;15.07;8.15;;;6.30;99.90;;;;;;5018252;28;20122;-83
2022/04/12 04:24:32;;;;;;;14.93;8.27;;;6.30;99.90;;;;;;5034122;28;20092;-83
2022/04/12 04:26:58;;;;;;;18.30;8.90;;;6.30;99.90;;;;;;5034011;28;20049;-82
2022/04/12 04:29:27;;;;;;;18.40;10.27;;;6.30;99.90;;;;;;5017837;28;20117;-83
2022/04/12 04:31:53;;;;;;;17.08;8.95;;;6.20;99.90;;;;;;5014930;28;20124;-82
2022/04/12 04:34:19;;;;;;;15.93;9.00;;;6.40;99.90;;;;;;5014693;28;20132;-83
2022/04/12 04:36:44;;;;;;;15.65;9.00;;;6.30;99.90;;;;;;5013778;28;20049;-83
2022/04/12 04:39:10;;;;;;;16.23;8.70;;;6.20;99.90;;;;;;4982087;28;20041;-84
2022/04/12 04:41:36;;;;;;;16.58;8.82;;;6.60;99.90;;;;;;5014489;28;20045;-83
2022/04/12 04:44:02;;;;;;;14.65;8.13;;;6.20;99.90;;;;;;4996774;28;20119;-83
2022/04/12 04:46:28;;;;;;;21.67;8.90;;;6.10;99.90;;;;;;5008324;28;20053;-85
2022/04/12 04:48:53;;;;;;;17.08;9.40;;;6.30;99.90;;;;;;5034476;28;20036;-83
2022/04/12 04:51:19;;;;;;;18.08;8.35;;;6.10;99.90;;;;;;5034024;28;20383;-83
2022/04/12 04:53:49;;;;;;;17.25;8.65;;;6.10;99.90;;;;;;5017247;28;20049;-83
2022/04/12 04:56:15;;;;;;;16.67;8.40;;;6.30;99.90;;;;;;5033412;28;20045;-83
2022/04/12 04:58:41;;;;;;;16.65;9.23;;;6.00;99.90;;;;;;5032542;28;20053;-83
2022/04/12 05:01:07;;;;;;;15.77;9.15;;;6.00;99.90;;;;;;5001255;28;20121;-83
2022/04/12 05:03:33;;;;;;;14.20;8.38;;;6.00;99.90;;;;;;5032968;28;20079;-83
2022/04/12 05:05:58;;;;;;;16.70;9.48;;;6.00;99.90;;;;;;5033777;28;20057;-83
2022/04/12 05:08:24;;;;;;;18.55;8.77;;;5.90;99.90;;;;;;5017284;28;20048;-83
2022/04/12 05:10:50;;;;;;;16.80;9.55;;;5.90;99.90;;;;;;5032908;28;20048;-84
2022/04/12 05:13:16;;;;;;;17.17;9.00;;;5.90;99.90;;;;;;5016178;28;20053;-84
2022/04/12 05:15:42;;;;;;;16.98;8.35;;;6.50;99.90;;;;;;5017051;28;20049;-84
2022/04/12 05:18:09;;;;;;;20.42;9.38;;;5.90;99.90;;;;;;5017349;28;20056;-84
2022/04/12 05:20:35;;;;;;;16.50;9.35;;;5.90;99.90;;;;;;5032879;28;20593;-83
2022/04/12 05:23:00;;;;;;;16.27;8.43;;;5.90;99.90;;;;;;5020879;28;20057;-83
2022/04/12 05:25:26;;;;;;;16.52;9.07;;;5.90;99.90;;;;;;5017471;28;20083;-83
2022/04/12 05:27:52;;;;;;;17.15;9.23;;;6.30;99.90;;;;;;5016015;28;20406;-83
2022/04/12 05:30:19;;;;;;;14.20;8.38;;;5.90;99.90;;;;;;5033085;28;20103;-83
2022/04/12 05:32:45;;;;;;;;;;;6.00;99.90;;;;;;5001024;28;20669;-83
2022/04/12 05:35:12;;;;;;;19.23;9.70;;;6.40;99.90;;;;;;5033344;28;20332;-84
2022/04/12 05:37:52;;;;;;;16.58;8.27;;;6.60;99.90;;;;;;5015416;28;20621;-83
2022/04/12 05:40:19;;;;;;;16.92;9.02;;;6.10;99.90;;;;;;5013759;28;20041;-83
2022/04/12 05:42:45;;;;;;;18.58;9.20;;;6.20;99.90;;;;;;5012332;28;20061;-83
2022/04/12 05:45:12;;;;;;;14.60;8.60;;;6.40;99.90;;;;;;5015163;28;20135;-83
2022/04/12 05:47:45;;;;;;;18.08;9.32;;;6.20;99.90;;;;;;5049562;28;20056;-83
2022/04/12 05:50:12;;;;;;;19.77;9.70;;;6.30;99.90;;;;;;5033434;28;20051;-83
2022/04/12 05:52:41;;;;;;;18.55;9.40;;;6.40;99.90;;;;;;5016146;28;20122;-83
2022/04/12 05:55:17;;;;;;;17.08;9.52;;;6.60;99.90;;;;;;5032744;28;20584;-83
2022/04/12 05:57:56;;;;;;;16.80;9.18;;;6.60;99.90;;;;;;5031905;28;20067;-83
2022/04/12 06:00:23;;;;;;;14.60;8.00;;;6.60;99.90;;;;;;5032644;28;20090;-83
2022/04/12 06:02:51;;;;;;;19.05;8.90;;;6.70;99.90;;;;;;5032716;28;20060;-83
2022/04/12 06:05:18;;;;;;;15.68;9.00;;;6.90;99.90;;;;;;5032596;28;20060;-83
2022/04/12 06:07:45;;;;;;;19.77;8.73;;;6.90;99.90;;;;;;5015608;28;20044;-83
2022/04/12 06:10:12;;;;;;;19.25;8.10;;;6.90;99.90;;;;;;5016459;28;20061;-83
2022/04/12 06:12:39;;;;;;;16.90;7.93;;;7.00;99.90;;;;;;5015275;28;20052;-83
2022/04/12 06:15:05;;;;;;;15.90;8.88;;;7.10;99.90;;;;;;5016170;28;20135;-83
2022/04/12 06:17:32;;;;;;;16.13;8.80;;;7.20;99.90;;;;;;5032496;28;20744;-83
2022/04/12 06:20:03;;;;;;;15.82;7.47;;;7.20;99.90;;;;;;5032406;28;20048;-83
2022/04/12 06:22:29;;;;;;;15.23;7.15;;;7.30;99.90;;;;;;5031800;28;20059;-83
2022/04/12 06:24:56;;;;;;;14.98;8.32;;;7.30;99.90;;;;;;5031961;28;20037;-83
2022/04/12 06:27:29;;;;;;;18.23;8.50;;;7.80;99.90;;;;;;5031384;28;20051;-83
2022/04/12 06:29:55;;;;;;;13.00;7.40;;;7.40;99.90;;;;;;5031850;28;20045;-83
2022/04/12 06:32:21;;;;;;;17.33;8.10;;;8.00;99.90;;;;;;5032285;28;20063;-83
2022/04/12 06:34:46;;;;;;;16.02;8.43;;;7.60;99.90;;;;;;5031609;28;20592;-83
2022/04/12 06:37:12;;;;;;;16.55;8.05;;;7.70;99.90;;;;;;5031839;28;20081;-83
2022/04/12 06:39:38;;;;;;;17.70;8.85;;;7.70;99.90;;;;;;5014788;28;20052;-84
2022/04/12 06:42:04;;;;;;;17.90;8.43;;;7.80;99.90;;;;;;5031290;28;20139;-83
2022/04/12 06:44:32;;;;;;;14.55;8.32;;;7.80;99.90;;;;;;5015401;28;20271;-83
2022/04/12 06:46:58;;;;;;;15.80;8.52;;;7.90;99.90;;;;;;5030375;28;20087;-83
2022/04/12 06:49:24;;;;;;;14.32;7.72;;;8.10;99.90;;;;;;5015962;28;20102;-82
2022/04/12 06:51:49;;;;;;;16.92;9.00;;;8.10;99.90;;;;;;5030825;28;20045;-83
2022/04/12 06:54:15;;;;;;;17.02;8.20;;;8.10;99.90;;;;;;5016400;28;20417;-82
2022/04/12 06:56:41;;;;;;;13.45;7.90;;;8.20;99.90;;;;;;5031781;28;20555;-83
2022/04/12 06:59:07;;;;;;;16.95;8.65;;;8.20;99.90;;;;;;5030745;28;20052;-83
2022/04/12 07:01:32;;;;;;;18.55;8.88;;;8.20;99.90;;;;;;5032135;28;20124;-83
2022/04/12 07:03:58;;;;;;;16.02;8.45;;;8.30;99.90;;;;;;5031952;28;20116;-83
2022/04/12 07:06:24;;;;;;;19.63;8.48;;;8.30;99.90;;;;;;5015615;28;20083;-82
2022/04/12 07:08:49;;;;;;;16.55;8.52;;;8.30;99.90;;;;;;5002053;28;20613;-83
2022/04/12 07:11:15;;;;;;;15.70;8.35;;;8.30;99.90;;;;;;5003611;28;20099;-83
2022/04/12 07:13:41;;;;;;;15.02;8.02;;;8.30;99.90;;;;;;5018129;28;20060;-84
2022/04/12 07:16:07;;;;;;;17.02;8.48;;;8.30;99.90;;;;;;5035232;28;20045;-84
2022/04/12 07:18:32;;;;;;;14.77;8.00;;;8.30;99.90;;;;;;5036064;28;20064;-83
2022/04/12 07:21:01;;;;;;;16.55;8.43;;;8.30;99.90;;;;;;5018235;28;20142;-84
2022/04/12 07:23:27;;;;;;;16.27;8.05;;;8.40;99.90;;;;;;5032364;28;20052;-83
2022/04/12 07:25:53;;;;;;;14.70;8.07;;;8.40;99.90;;;;;;5000382;28;20045;-83
2022/04/12 07:28:19;;;;;;;14.23;7.60;;;8.50;99.90;;;;;;5014430;28;20048;-83
2022/04/12 07:30:44;;;;;;;15.68;8.43;;;8.50;99.90;;;;;;5017551;28;20037;-84
2022/04/12 07:33:10;;;;;;;14.98;8.23;;;8.50;99.90;;;;;;5018592;28;20049;-84
2022/04/12 07:35:36;;;;;;;15.45;7.25;;;8.60;99.90;;;;;;5016822;28;20045;-84
2022/04/12 07:38:01;;;;;;;18.05;8.65;;;8.60;99.90;;;;;;5000140;28;20033;-83
2022/04/12 07:40:27;;;;;;;14.57;7.47;;;8.70;99.90;;;;;;5002150;28;20045;-84
2022/04/12 07:42:53;;;;;;;15.40;7.75;;;8.70;99.90;;;;;;5016728;28;20036;-84
2022/04/12 07:45:18;;;;;;;14.30;7.38;;;8.80;99.90;;;;;;5002392;28;20561;-83
2022/04/12 07:47:44;;;;;;;15.85;7.70;;;8.80;99.90;;;;;;5013003;28;20127;-84
2022/04/12 07:50:10;;;;;;;12.15;6.82;;;8.90;99.90;;;;;;5035747;28;20049;-84
2022/04/12 07:52:36;;;;;;;14.05;7.75;;;9.00;99.90;;;;;;5018621;28;20049;-83
2022/04/12 07:55:02;;;;;;;15.98;7.35;;;9.10;99.90;;;;;;5035247;28;20084;-84
2022/04/12 07:57:29;;;;;;;13.05;7.07;;;9.10;99.90;;;;;;5018538;28;20048;-83
2022/04/12 07:59:54;;;;;;;17.73;7.82;;;9.20;99.90;;;;;;5034986;28;20075;-84
2022/04/12 08:02:20;;;;;;;14.27;7.18;;;9.20;99.90;;;;;;5019575;28;20513;-84
2022/04/12 08:04:46;;;;;;;13.55;7.22;;;9.30;99.90;;;;;;5035075;28;20053;-84
2022/04/12 08:07:12;;;;;;;13.32;7.80;;;9.40;99.90;;;;;;5035211;28;20048;-83
2022/04/12 08:09:37;;;;;;;19.33;7.80;;;9.50;99.90;;;;;;5018982;28;20055;-83
2022/04/12 08:12:04;;;;;;;15.20;8.00;;;9.60;99.90;;;;;;5017855;28;20142;-83
2022/04/12 08:14:30;;;;;;;15.32;7.90;;;9.70;99.90;;;;;;5002770;28;20063;-82
2022/04/12 08:16:56;;;;;;;14.80;7.22;;;9.80;99.90;;;;;;5034430;28;20049;-80
2022/04/12 08:19:22;;;;;;;14.82;6.88;;;9.90;99.90;;;;;;5014336;28;20494;-80
2022/04/12 08:21:48;;;;;;;15.98;8.05;;;10.00;99.90;;;;;;4982298;28;20140;-81
2022/04/12 08:24:13;;;;;;;13.43;8.00;;;10.10;99.90;;;;;;5032005;28;20096;-81
2022/04/12 08:26:39;;;;;;;13.88;8.35;;;10.20;99.90;;;;;;5015836;28;20085;-80
2022/04/12 08:29:05;;;;;;;14.55;7.88;;;10.30;99.90;;;;;;5030398;28;20239;-82
2022/04/12 08:31:31;;;;;;;15.98;8.32;;;10.40;99.90;;;;;;5031825;28;20046;-82
2022/04/12 08:33:57;;;;;;;12.93;7.00;;;10.50;99.90;;;;;;5045524;28;20041;-82
2022/04/12 08:36:24;;;;;;;15.70;7.30;;;10.60;99.90;;;;;;5017403;28;20049;-81
2022/04/12 08:38:51;;;;;;;14.00;7.88;;;10.70;99.90;;;;;;5001499;28;20055;-83
2022/04/12 08:41:17;;;;;;;14.68;7.63;;;10.80;99.90;;;;;;5002197;28;20490;-84
2022/04/12 08:43:44;;;;;;;16.75;7.45;;;10.80;99.90;;;;;;5023073;28;20053;-82
2022/04/12 08:46:11;;;;;;;13.88;7.88;;;11.00;99.90;;;;;;5027874;28;20564;-84
2022/04/12 08:48:38;;;;;;;12.55;7.45;;;11.00;99.90;;;;;;5035246;28;20395;-83
2022/04/12 08:51:05;;;;;;;13.40;7.20;;;11.10;99.90;;;;;;5032509;28;20049;-82
2022/04/12 08:53:31;;;;;;;16.27;8.70;;;11.20;99.90;;;;;;5024347;28;20056;-83
2022/04/12 08:55:57;;;;;;;14.50;7.78;;;11.30;99.90;;;;;;5033971;28;20598;-83
2022/04/12 08:58:24;;;;;;;14.60;7.90;;;11.40;99.90;;;;;;5032876;28;20047;-84
2022/04/12 09:00:50;;;;;;;13.32;7.47;;;11.60;99.90;;;;;;5034255;28;20045;-81
2022/04/12 09:03:16;;;;;;;14.38;7.57;;;11.70;99.90;;;;;;5018451;28;20186;-80
2022/04/12 09:05:42;;;;;;;13.35;7.47;;;11.80;99.90;;;;;;5034050;28;20063;-80
2022/04/12 09:08:30;;;;;;;13.93;8.10;;;11.90;99.90;;;;;;5034152;28;20056;-80
2022/04/12 09:11:05;;;;;;;15.10;7.28;;;12.00;99.90;;;;;;5033539;28;20106;-78
2022/04/12 09:13:31;;;;;;;12.30;7.53;;;12.20;99.90;;;;;;4988720;28;20061;-78
2022/04/12 09:15:57;;;;;;;12.68;7.32;;;12.30;99.90;;;;;;5025973;28;20049;-79
2022/04/12 09:18:39;;;;;;;12.32;6.97;;;12.40;99.90;;;;;;5034265;28;20055;-78
2022/04/12 09:21:16;;;;;;;15.00;7.40;;;12.50;99.90;;;;;;5015123;28;20053;-78
2022/04/12 09:23:48;;;;;;;13.20;6.55;;;12.60;99.90;;;;;;5013557;28;20049;-78
2022/04/12 09:26:22;;;;;;;12.20;6.63;;;12.70;99.90;;;;;;5030440;28;20057;-78
2022/04/12 09:28:48;;;;;;;14.10;7.43;;;12.90;99.90;;;;;;5032900;28;20055;-80
2022/04/12 09:31:15;;;;;;;11.60;6.28;;;13.00;99.90;;;;;;5045043;28;20049;-80
2022/04/12 09:33:42;;;;;;;11.95;6.80;;;13.10;99.90;;;;;;5016445;28;20041;-81
2022/04/12 09:36:09;;;;;;;13.73;7.13;;;13.20;99.90;;;;;;4998449;28;20080;-80
2022/04/12 09:38:36;;;;;;;;;;;13.30;99.90;;;;;;5029191;28;20052;-80
2022/04/12 09:41:26;;;;;;;11.90;6.80;;;13.40;99.90;;;;;;5033165;28;19924;-80
2022/04/12 09:44:11;;;;;;;11.98;6.50;;;13.40;99.90;;;;;;5015616;28;20167;-81
2022/04/12 09:46:39;;;;;;;11.27;7.28;;;13.60;99.90;;;;;;5033565;28;20119;-80
2022/04/12 09:49:06;;;;;;;12.35;7.43;;;13.70;99.90;;;;;;5015879;28;20055;-81
2022/04/12 09:51:36;;;;;;;12.85;7.03;;;13.70;99.90;;;;;;5030255;28;20548;-80
2022/04/12 09:54:08;;;;;;;15.52;7.30;;;13.80;99.90;;;;;;5031231;28;20048;-80
2022/04/12 09:56:36;;;;;;;14.30;7.20;;;13.90;99.90;;;;;;4998768;28;20111;-80
2022/04/12 09:59:09;;;;;;;13.95;7.38;;;14.10;99.90;;;;;;5013787;28;20133;-80
2022/04/12 10:01:41;;;;;;;13.25;8.05;;;14.20;99.90;;;;;;5028346;28;20044;-80
2022/04/12 10:04:11;;;;;;;15.43;7.88;;;14.30;99.90;;;;;;5023265;28;20041;-81
2022/04/12 10:06:41;;;;;;;13.13;7.20;;;14.40;99.90;;;;;;5024601;28;20059;-81
2022/04/12 10:09:11;;;;;;;13.00;6.95;;;14.50;99.90;;;;;;5014395;28;20251;-81
2022/04/12 10:11:38;;;;;;;14.63;7.35;;;14.60;99.90;;;;;;5022658;28;20053;-81
2022/04/12 10:14:05;;;;;;;15.43;7.97;;;14.70;99.90;;;;;;4989495;28;20059;-80
2022/04/12 10:16:32;;;;;;;12.32;6.35;;;14.90;99.90;;;;;;4993114;28;20037;-80
2022/04/12 10:19:00;;;;;;;13.75;6.68;;;14.90;99.90;;;;;;5013533;28;20053;-81
2022/04/12 10:21:26;;;;;;;14.05;6.93;;;15.00;99.90;;;;;;5006520;28;20097;-80
2022/04/12 10:23:58;;;;;;;15.10;6.82;;;15.00;99.90;;;;;;5043847;28;20099;-81
2022/04/12 10:26:26;;;;;;;11.80;6.40;;;15.00;99.90;;;;;;5008337;28;20068;-81
2022/04/12 10:29:05;;;;;;;10.70;6.57;;;15.20;99.90;;;;;;5028190;28;20044;-81
2022/04/12 10:31:31;;;;;;;13.85;6.75;;;15.20;99.70;;;;;;5047654;28;20045;-81
2022/04/12 10:34:03;;;;;;;;;;;15.20;99.90;;;;;;5024829;28;20053;-80
2022/04/12 10:36:55;;;;;;;13.73;6.03;;;15.30;99.90;;;;;;5022410;28;19929;-81
2022/04/12 10:39:28;;;;;;;12.65;6.97;;;15.40;99.90;;;;;;5041398;28;20525;-81
2022/04/12 10:41:56;;;;;;;12.48;7.40;;;15.40;99.90;;;;;;5011800;28;20505;-81
2022/04/12 10:44:22;;;;;;;15.27;7.68;;;15.50;99.50;;;;;;5030349;28;20126;-81
2022/04/12 10:46:51;;;;;;;12.32;6.70;;;15.60;99.40;;;;;;4995197;28;20040;-81
2022/04/12 10:49:21;;;;;;;14.38;7.00;;;15.70;97.10;;;;;;5024346;28;20132;-81
2022/04/12 10:51:57;;;;;;;12.77;6.88;;;15.70;98.20;;;;;;4989307;28;20057;-81
2022/04/12 10:54:42;;;;;;;11.85;7.53;;;15.90;96.40;;;;;;4987456;28;20056;-81
2022/04/12 10:57:17;;;;;;;13.45;7.20;;;15.90;97.40;;;;;;4993583;28;20471;-81
2022/04/12 10:59:53;;;;;;;13.13;7.30;;;16.00;97.90;;;;;;5025369;28;20517;-79
2022/04/12 11:02:20;;;;;;;15.70;7.90;;;16.10;96.40;;;;;;5029161;28;20095;-81
2022/04/12 11:04:46;;;;;;;15.07;7.55;;;16.20;98.40;;;;;;5010222;28;20049;-80
2022/04/12 11:07:32;;;;;;;15.23;7.30;;;16.30;98.70;;;;;;5029310;28;20056;-80
2022/04/12 11:10:11;;;;;;;15.82;8.10;;;16.50;96.00;;;;;;5032264;28;20044;-80
2022/04/12 11:12:44;;;;;;;16.25;7.50;;;16.50;95.30;;;;;;5031284;28;20053;-80
2022/04/12 11:15:23;;;;;;;12.93;7.30;;;16.60;95.00;;;;;;5015414;28;20092;-80
2022/04/12 11:17:49;;;;;;;11.52;7.50;;;16.80;95.30;;;;;;5015153;28;20601;-80
2022/04/12 11:20:22;;;;;;;17.42;8.05;;;16.90;96.40;;;;;;5015255;28;20132;-80
2022/04/12 11:22:59;;;;;;;13.82;7.18;;;17.00;95.30;;;;;;5022549;28;20041;-80
2022/04/12 11:25:28;;;;;;;13.57;7.70;;;17.10;91.80;;;;;;5012928;28;20088;-80
2022/04/12 11:28:01;;;;;;;13.23;7.13;;;17.20;90.70;;;;;;5015165;28;20048;-80
2022/04/12 11:30:27;;;;;;;15.82;7.65;;;17.30;90.10;;;;;;5032164;28;20056;-80
2022/04/12 11:32:55;;;;;;;12.75;7.57;;;17.40;90.20;;;;;;5031971;28;20486;-80
2022/04/12 11:35:22;;;;;;;17.00;7.80;;;17.50;87.20;;;;;;5014711;28;20548;-80
2022/04/12 11:37:49;;;;;;;17.85;8.00;;;17.70;87.60;;;;;;5031870;28;20086;-80
2022/04/12 11:40:15;;;;;;;17.52;8.02;;;17.80;89.60;;;;;;5031726;28;20127;-80
2022/04/12 11:42:43;;;;;;;17.88;8.00;;;18.00;85.10;;;;;;5031085;28;20474;-79
2022/04/12 11:45:10;;;;;;;13.82;7.70;;;18.10;84.10;;;;;;5030837;28;20525;-81
2022/04/12 11:47:39;;;;;;;17.67;8.02;;;18.20;82.40;;;;;;4999771;28;20068;-80
2022/04/12 11:50:16;;;;;;;13.57;7.53;;;18.30;80.00;;;;;;5031320;28;20053;-80
2022/04/12 11:52:43;;;;;;;18.42;8.45;;;18.40;80.30;;;;;;5015293;28;20134;-80
2022/04/12 11:55:09;;;;;;;15.63;7.78;;;18.40;79.30;;;;;;5018244;28;20045;-80
2022/04/12 11:57:35;;;;;;;13.68;8.13;;;18.50;79.30;;;;;;5015222;28;20116;-80
2022/04/12 12:00:00;;;;;;;;;;;18.60;80.40;;;;;;5015107;28;20513;-80
2022/04/12 12:02:28;;;;;;;14.85;8.43;;;18.70;79.60;;;;;;5023339;28;19932;-79
2022/04/12 12:05:01;;;;;;;15.80;8.50;;;18.70;80.00;;;;;;5016033;28;20491;-80
2022/04/12 12:07:28;;;;;;;14.85;7.88;;;18.90;80.00;;;;;;5015076;28;20053;-80
2022/04/12 12:09:58;;;;;;;18.60;8.20;;;19.20;80.20;;;;;;5018226;28;20487;-80
2022/04/12 12:12:32;;;;;;;14.90;7.97;;;19.50;81.40;;;;;;5014846;28;20140;-80
2022/04/12 12:14:58;;;;;;;14.52;7.90;;;19.70;80.20;;;;;;5015626;28;20049;-80
2022/04/12 12:17:27;;;;;;;14.38;7.82;;;19.90;78.20;;;;;;5015707;28;20045;-81
2022/04/12 12:19:52;;;;;;;16.02;7.50;;;20.10;78.60;;;;;;5035749;28;20081;-80
2022/04/12 12:22:19;;;;;;;;;;;20.40;80.20;;;;;;5027147;28;20250;-80
2022/04/12 12:24:54;;;;;;;11.23;6.73;;;20.70;81.00;;;;;;5018931;28;19924;-80
2022/04/12 12:27:37;;;;;;;12.88;6.10;;;20.90;75.10;;;;;;5034235;28;20959;-80
2022/04/12 12:30:07;;;;;;;13.07;6.25;;;21.10;69.90;;;;;;5018116;28;20494;-80
2022/04/12 12:32:38;;;;;;;15.23;6.45;;;21.40;73.30;;;;;;5035508;28;20084;-80
2022/04/12 12:35:13;;;;;;;12.13;6.38;;;21.60;70.60;;;;;;5014669;28;20061;-80
2022/04/12 12:37:41;;;;;;;13.32;7.05;;;21.70;69.10;;;;;;5018925;28;20055;-80
2022/04/12 12:40:23;;;;;;;13.02;6.75;;;21.70;68.10;;;;;;5034711;28;20084;-80
2022/04/12 12:42:50;;;;;;;11.88;6.63;;;21.80;66.20;;;;;;5017683;28;20505;-80
2022/04/12 12:45:19;;;;;;;12.00;6.45;;;22.00;68.20;;;;;;5034486;28;20056;-80
2022/04/12 12:47:48;;;;;;;12.90;6.70;;;22.20;67.80;;;;;;5035388;28;20056;-81
2022/04/12 12:50:15;;;;;;;11.18;6.18;;;22.50;66.70;;;;;;5034240;28;20114;-81